Time,TemperatureF,DewpointF,PressureIn,WindDirection,WindDirectionDegrees,WindSpeedMPH,WindSpeedGustMPH,Humidity,HourlyPrecipIn,Conditions,Clouds,dailyrainin,SoftwareType,DateUTC
2013-09-24 00:01:00,58.7,55.2,30.03,SSE,163,0.0,9.0,88,0.00,,,0.00,Wunderground v.1.15,2013-09-24 04:01:00,
2013-09-24 00:02:00,58.6,55.1,30.03,SSE,163,0.0,9.0,88,0.00,,,0.00,Wunderground v.1.15,2013-09-24 04:02:00,
2013-09-24 00:04:00,58.6,55.1,30.03,SSE,163,0.0,9.0,88,0.00,,,0.00,Wunderground v.1.15,2013-09-24 04:04:00,
2013-09-24 00:05:00,58.5,55.0,30.03,SSE,163,0.0,9.0,88,0.00,,,0.00,Wunderground v.1.15,2013-09-24 04:05:00,
2013-09-24 00:08:00,58.4,54.9,30.03,SSE,163,0.0,9.0,88,0.00,,,0.00,Wunderground v.1.15,2013-09-24 04:08:00,
2013-09-24 00:13:00,58.2,55.0,30.03,SSE,163,0.0,9.0,89,0.00,,,0.00,Wunderground v.1.15,2013-09-24 04:13:00,
2013-09-24 00:18:00,58.1,54.9,30.03,SSE,163,0.0,9.0,89,0.00,,,0.00,Wunderground v.1.15,2013-09-24 04:18:00,
2013-09-24 00:24:00,58.2,55.0,30.03,ESE,114,0.0,9.0,89,0.00,,,0.00,Wunderground v.1.15,2013-09-24 04:24:00,
2013-09-24 00:29:00,58.3,55.1,30.03,ESE,115,0.0,9.0,89,0.00,,,0.00,Wunderground v.1.15,2013-09-24 04:29:00,
2013-09-24 00:34:00,58.4,55.2,30.03,ESE,115,0.0,9.0,89,0.00,,,0.00,Wunderground v.1.15,2013-09-24 04:34:00,
2013-09-24 00:39:00,58.4,55.2,30.03,ESE,115,0.0,9.0,89,0.00,,,0.00,Wunderground v.1.15,2013-09-24 04:39:00,
2013-09-24 00:44:00,58.3,55.1,30.03,ESE,115,0.0,9.0,89,0.00,,,0.00,Wunderground v.1.15,2013-09-24 04:44:00,
2013-09-24 00:49:00,58.2,55.0,30.03,ESE,115,0.0,9.0,89,0.00,,,0.00,Wunderground v.1.15,2013-09-24 04:49:00,
2013-09-24 00:54:00,57.9,54.7,30.03,ESE,115,0.0,9.0,89,0.00,,,0.00,Wunderground v.1.15,2013-09-24 04:54:00,
2013-09-24 01:00:00,57.7,54.5,30.03,ESE,115,0.0,9.0,89,0.00,,,0.00,Wunderground v.1.15,2013-09-24 05:00:00,
2013-09-24 01:05:00,57.5,54.3,30.03,ESE,115,0.0,9.0,89,0.00,,,0.00,Wunderground v.1.15,2013-09-24 05:05:00,
2013-09-24 01:10:00,57.3,54.1,30.03,ESE,115,0.0,9.0,89,0.00,,,0.00,Wunderground v.1.15,2013-09-24 05:10:00,
2013-09-24 01:15:00,57.1,54.2,30.03,ESE,115,0.0,9.0,90,0.00,,,0.00,Wunderground v.1.15,2013-09-24 05:15:00,
2013-09-24 01:20:00,56.9,54.0,30.03,ESE,115,0.0,9.0,90,0.00,,,0.00,Wunderground v.1.15,2013-09-24 05:20:00,
2013-09-24 01:26:00,56.8,53.9,30.03,ESE,115,0.0,9.0,90,0.00,,,0.00,Wunderground v.1.15,2013-09-24 05:26:00,
2013-09-24 01:31:00,56.9,54.3,30.03,ESE,115,0.0,9.0,91,0.00,,,0.00,Wunderground v.1.15,2013-09-24 05:31:00,
2013-09-24 01:36:00,56.9,54.3,30.03,ESE,115,0.0,9.0,91,0.00,,,0.00,Wunderground v.1.15,2013-09-24 05:36:00,
2013-09-24 01:41:00,57.0,54.4,30.03,ESE,115,0.0,9.0,91,0.00,,,0.00,Wunderground v.1.15,2013-09-24 05:41:00,
2013-09-24 01:46:00,57.1,54.5,30.03,ESE,115,0.0,9.0,91,0.00,,,0.00,Wunderground v.1.15,2013-09-24 05:46:00,
2013-09-24 01:52:00,57.0,54.4,30.03,ESE,115,0.0,9.0,91,0.00,,,0.00,Wunderground v.1.15,2013-09-24 05:52:00,
2013-09-24 01:57:00,57.1,54.5,30.03,ESE,115,0.0,9.0,91,0.00,,,0.00,Wunderground v.1.15,2013-09-24 05:57:00,
2013-09-24 02:02:00,57.1,54.5,30.03,ESE,115,0.0,9.0,91,0.00,,,0.00,Wunderground v.1.15,2013-09-24 06:02:00,
2013-09-24 02:07:00,57.2,54.6,30.03,ESE,115,0.0,9.0,91,0.00,,,0.00,Wunderground v.1.15,2013-09-24 06:07:00,
2013-09-24 02:12:00,57.1,54.5,30.03,ESE,115,0.0,9.0,91,0.00,,,0.00,Wunderground v.1.15,2013-09-24 06:12:00,
2013-09-24 02:18:00,57.1,54.5,30.03,ESE,115,0.0,9.0,91,0.00,,,0.00,Wunderground v.1.15,2013-09-24 06:18:00,
2013-09-24 02:23:00,57.2,54.6,30.03,ESE,115,0.0,9.0,91,0.00,,,0.00,Wunderground v.1.15,2013-09-24 06:23:00,
2013-09-24 02:28:00,57.3,54.7,30.03,SSE,159,0.0,9.0,91,0.00,,,0.00,Wunderground v.1.15,2013-09-24 06:28:00,
2013-09-24 02:34:00,57.3,54.7,30.03,SE,144,0.0,9.0,91,0.00,,,0.00,Wunderground v.1.15,2013-09-24 06:34:00,
2013-09-24 02:39:00,57.5,54.9,30.03,SE,144,0.0,9.0,91,0.00,,,0.00,Wunderground v.1.15,2013-09-24 06:39:00,
2013-09-24 02:44:00,57.6,54.7,30.03,ESE,122,0.0,9.0,90,0.00,,,0.00,Wunderground v.1.15,2013-09-24 06:44:00,
2013-09-24 02:49:00,57.7,54.8,30.03,ESE,123,0.0,9.0,90,0.00,,,0.00,Wunderground v.1.15,2013-09-24 06:49:00,
2013-09-24 02:54:00,57.9,55.0,30.03,ESE,117,0.0,9.0,90,0.00,,,0.00,Wunderground v.1.15,2013-09-24 06:54:00,
2013-09-24 02:59:00,58.0,54.8,30.03,ESE,117,0.0,9.0,89,0.00,,,0.00,Wunderground v.1.15,2013-09-24 06:59:00,
2013-09-24 03:04:00,58.2,55.0,30.03,SE,132,0.0,9.0,89,0.00,,,0.00,Wunderground v.1.15,2013-09-24 07:04:00,
2013-09-24 03:09:00,58.3,55.1,30.02,SE,132,0.0,9.0,89,0.00,,,0.00,Wunderground v.1.15,2013-09-24 07:09:00,
2013-09-24 03:14:00,58.4,54.9,30.03,ESE,111,0.0,9.0,88,0.00,,,0.00,Wunderground v.1.15,2013-09-24 07:14:00,
2013-09-24 03:19:00,58.5,55.0,30.02,ESE,114,0.0,9.0,88,0.00,,,0.00,Wunderground v.1.15,2013-09-24 07:19:00,
2013-09-24 03:24:00,58.5,55.0,30.02,SSE,161,0.0,9.0,88,0.00,,,0.00,Wunderground v.1.15,2013-09-24 07:24:00,
2013-09-24 03:29:00,58.5,55.0,30.02,SSE,161,0.0,9.0,88,0.00,,,0.00,Wunderground v.1.15,2013-09-24 07:29:00,
2013-09-24 03:35:00,58.5,54.6,30.01,SSE,148,0.0,9.0,87,0.00,,,0.00,Wunderground v.1.15,2013-09-24 07:35:00,
2013-09-24 03:41:00,58.5,54.6,30.01,SSE,153,0.0,9.0,87,0.00,,,0.00,Wunderground v.1.15,2013-09-24 07:41:00,
2013-09-24 03:47:00,58.5,54.6,30.01,SSE,148,0.0,9.0,87,0.00,,,0.00,Wunderground v.1.15,2013-09-24 07:47:00,
2013-09-24 03:52:00,58.6,54.7,30.00,SE,140,0.0,9.0,87,0.00,,,0.00,Wunderground v.1.15,2013-09-24 07:52:00,
2013-09-24 03:57:00,58.7,54.8,30.01,SE,146,0.0,9.0,87,0.00,,,0.00,Wunderground v.1.15,2013-09-24 07:57:00,
2013-09-24 04:02:00,58.7,54.8,30.01,ENE,77,0.0,9.0,87,0.00,,,0.00,Wunderground v.1.15,2013-09-24 08:02:00,
2013-09-24 04:07:00,58.6,54.7,30.01,ENE,76,0.0,9.0,87,0.00,,,0.00,Wunderground v.1.15,2013-09-24 08:07:00,
2013-09-24 04:12:00,58.6,54.7,30.01,SW,236,0.0,9.0,87,0.00,,,0.00,Wunderground v.1.15,2013-09-24 08:12:00,
2013-09-24 04:18:00,58.7,54.8,30.01,South,173,0.0,9.0,87,0.00,,,0.00,Wunderground v.1.15,2013-09-24 08:18:00,
2013-09-24 04:23:00,58.7,54.8,30.01,SSW,196,0.0,9.0,87,0.00,,,0.00,Wunderground v.1.15,2013-09-24 08:23:00,
2013-09-24 04:29:00,58.6,55.1,30.01,SSW,196,0.0,9.0,88,0.00,,,0.00,Wunderground v.1.15,2013-09-24 08:29:00,
2013-09-24 04:35:00,58.3,54.8,30.01,SSW,196,0.0,9.0,88,0.00,,,0.00,Wunderground v.1.15,2013-09-24 08:35:00,
2013-09-24 04:40:00,58.2,54.7,30.01,SSW,196,0.0,9.0,88,0.00,,,0.00,Wunderground v.1.15,2013-09-24 08:40:00,
2013-09-24 04:45:00,58.0,54.8,30.01,SSW,196,0.0,9.0,89,0.00,,,0.00,Wunderground v.1.15,2013-09-24 08:45:00,
2013-09-24 04:50:00,57.8,54.6,30.01,SSE,158,0.0,9.0,89,0.00,,,0.00,Wunderground v.1.15,2013-09-24 08:50:00,
2013-09-24 04:55:00,57.7,54.5,30.01,SSE,157,0.0,9.0,89,0.00,,,0.00,Wunderground v.1.15,2013-09-24 08:55:00,
2013-09-24 05:00:00,57.6,54.7,30.01,ESE,105,0.0,9.0,90,0.00,,,0.00,Wunderground v.1.15,2013-09-24 09:00:00,
2013-09-24 05:06:00,57.7,54.8,30.01,East,98,0.0,9.0,90,0.00,,,0.00,Wunderground v.1.15,2013-09-24 09:06:00,
2013-09-24 05:11:00,57.8,54.9,30.01,SE,128,0.0,9.0,90,0.00,,,0.00,Wunderground v.1.15,2013-09-24 09:11:00,
2013-09-24 05:16:00,58.1,55.2,30.01,SE,128,0.0,9.0,90,0.00,,,0.00,Wunderground v.1.15,2013-09-24 09:16:00,
2013-09-24 05:22:00,58.3,56.0,30.01,SE,128,0.0,9.0,92,0.00,,,0.00,Wunderground v.1.15,2013-09-24 09:22:00,
2013-09-24 05:27:00,58.4,55.5,30.02,NE,42,0.0,9.0,90,0.00,,,0.00,Wunderground v.1.15,2013-09-24 09:27:00,
2013-09-24 05:32:00,58.5,55.6,30.02,NE,42,0.0,9.0,90,0.00,,,0.00,Wunderground v.1.15,2013-09-24 09:32:00,
2013-09-24 05:37:00,58.5,55.6,30.02,NE,42,0.0,9.0,90,0.00,,,0.00,Wunderground v.1.15,2013-09-24 09:37:00,
2013-09-24 05:42:00,58.5,55.6,30.02,NE,42,0.0,9.0,90,0.00,,,0.00,Wunderground v.1.15,2013-09-24 09:42:00,
2013-09-24 05:48:00,58.5,55.6,30.02,NE,42,0.0,9.0,90,0.00,,,0.00,Wunderground v.1.15,2013-09-24 09:48:00,
2013-09-24 05:53:00,58.5,55.6,30.02,NE,42,0.0,9.0,90,0.00,,,0.00,Wunderground v.1.15,2013-09-24 09:53:00,
2013-09-24 05:58:00,58.6,55.7,30.02,NE,42,0.0,9.0,90,0.00,,,0.00,Wunderground v.1.15,2013-09-24 09:58:00,
2013-09-24 06:04:00,59.0,56.1,30.02,NE,42,0.0,9.0,90,0.00,,,0.00,Wunderground v.1.15,2013-09-24 10:04:00,
2013-09-24 06:10:00,59.0,55.8,30.02,ENE,71,0.0,9.0,89,0.00,,,0.00,Wunderground v.1.15,2013-09-24 10:10:00,
2013-09-24 06:15:00,59.2,55.6,30.02,NE,47,0.0,9.0,88,0.00,,,0.00,Wunderground v.1.15,2013-09-24 10:15:00,
2013-09-24 06:20:00,59.6,56.0,30.02,NE,47,0.0,9.0,88,0.00,,,0.00,Wunderground v.1.15,2013-09-24 10:20:00,
2013-09-24 06:25:00,59.6,56.0,30.03,NE,47,0.0,9.0,88,0.00,,,0.00,Wunderground v.1.15,2013-09-24 10:25:00,
2013-09-24 06:30:00,59.6,56.0,30.03,NE,47,0.0,9.0,88,0.00,,,0.00,Wunderground v.1.15,2013-09-24 10:30:00,
2013-09-24 06:36:00,59.5,56.3,30.03,NE,47,0.0,9.0,89,0.00,,,0.00,Wunderground v.1.15,2013-09-24 10:36:00,
2013-09-24 06:42:00,59.5,56.3,30.03,NE,47,0.0,9.0,89,0.00,,,0.00,Wunderground v.1.15,2013-09-24 10:42:00,
2013-09-24 06:47:00,59.4,56.2,30.03,NE,47,0.0,9.0,89,0.00,,,0.00,Wunderground v.1.15,2013-09-24 10:47:00,
2013-09-24 06:52:00,59.1,55.9,30.03,NE,47,0.0,9.0,89,0.00,,,0.00,Wunderground v.1.15,2013-09-24 10:52:00,
2013-09-24 06:57:00,59.0,56.1,30.03,NE,47,0.0,9.0,90,0.00,,,0.00,Wunderground v.1.15,2013-09-24 10:57:00,
2013-09-24 07:02:00,59.0,56.1,30.03,NE,47,0.0,9.0,90,0.00,,,0.00,Wunderground v.1.15,2013-09-24 11:02:00,
2013-09-24 07:07:00,59.0,56.1,30.03,NE,47,0.0,9.0,90,0.00,,,0.00,Wunderground v.1.15,2013-09-24 11:07:00,
2013-09-24 07:13:00,59.0,56.1,30.03,NE,47,0.0,9.0,90,0.00,,,0.00,Wunderground v.1.15,2013-09-24 11:13:00,
2013-09-24 07:18:00,59.1,55.9,30.03,NE,47,0.0,9.0,89,0.00,,,0.00,Wunderground v.1.15,2013-09-24 11:18:00,
2013-09-24 07:24:00,59.3,56.1,30.03,NE,47,0.0,9.0,89,0.00,,,0.00,Wunderground v.1.15,2013-09-24 11:24:00,
2013-09-24 07:29:00,59.4,56.2,30.03,East,98,0.0,9.0,89,0.00,,,0.00,Wunderground v.1.15,2013-09-24 11:29:00,
2013-09-24 07:34:00,59.6,56.4,30.03,ENE,76,0.0,9.0,89,0.00,,,0.00,Wunderground v.1.15,2013-09-24 11:34:00,
2013-09-24 07:39:00,59.6,56.4,30.03,East,79,0.0,9.0,89,0.00,,,0.00,Wunderground v.1.15,2013-09-24 11:39:00,
2013-09-24 07:44:00,59.6,56.0,30.03,ESE,123,0.0,9.0,88,0.00,,,0.00,Wunderground v.1.15,2013-09-24 11:44:00,
2013-09-24 07:50:00,59.7,55.8,30.03,NE,53,0.0,9.0,87,0.00,,,0.00,Wunderground v.1.15,2013-09-24 11:50:00,
2013-09-24 07:55:00,59.9,56.0,30.03,NE,53,0.0,9.0,87,0.00,,,0.00,Wunderground v.1.15,2013-09-24 11:55:00,
2013-09-24 08:00:00,60.1,56.2,30.03,ENE,75,0.0,9.0,87,0.00,,,0.00,Wunderground v.1.15,2013-09-24 12:00:00,
2013-09-24 08:06:00,60.3,56.1,30.03,ENE,64,0.0,9.0,86,0.00,,,0.00,Wunderground v.1.15,2013-09-24 12:06:00,
2013-09-24 08:12:00,60.6,56.4,30.03,ENE,78,0.0,9.0,86,0.00,,,0.00,Wunderground v.1.15,2013-09-24 12:12:00,
2013-09-24 08:17:00,60.7,56.2,30.03,ENE,78,0.0,9.0,85,0.00,,,0.00,Wunderground v.1.15,2013-09-24 12:17:00,
2013-09-24 08:22:00,60.9,56.4,30.03,ESE,107,0.0,9.0,85,0.00,,,0.00,Wunderground v.1.15,2013-09-24 12:22:00,
2013-09-24 08:27:00,60.9,56.4,30.03,South,171,0.0,9.0,85,0.00,,,0.00,Wunderground v.1.15,2013-09-24 12:27:00,
2013-09-24 08:32:00,61.1,56.2,30.02,NE,53,1.0,9.0,84,0.00,,,0.00,Wunderground v.1.15,2013-09-24 12:32:00,
2013-09-24 08:38:00,61.2,56.3,30.02,ESE,117,0.0,9.0,84,0.00,,,0.00,Wunderground v.1.15,2013-09-24 12:38:00,
2013-09-24 08:44:00,61.4,56.5,30.02,NE,45,1.0,9.0,84,0.00,,,0.00,Wunderground v.1.15,2013-09-24 12:44:00,
2013-09-24 08:49:00,61.5,56.9,30.02,ESE,120,0.0,9.0,85,0.00,,,0.00,Wunderground v.1.15,2013-09-24 12:49:00,
2013-09-24 08:54:00,61.6,56.7,30.02,ESE,117,0.0,9.0,84,0.00,,,0.00,Wunderground v.1.15,2013-09-24 12:54:00,
2013-09-24 09:00:00,61.8,56.9,30.02,SE,138,0.0,9.0,84,0.00,,,0.00,Wunderground v.1.15,2013-09-24 13:00:00,
2013-09-24 09:05:00,61.9,56.7,30.02,ESE,111,0.0,9.0,83,0.00,,,0.00,Wunderground v.1.15,2013-09-24 13:05:00,
2013-09-24 09:10:00,62.1,57.2,30.02,SE,145,0.0,9.0,84,0.00,,,0.00,Wunderground v.1.15,2013-09-24 13:10:00,
2013-09-24 09:15:00,62.2,57.0,30.02,ENE,59,0.0,9.0,83,0.00,,,0.00,Wunderground v.1.15,2013-09-24 13:15:00,
2013-09-24 09:20:00,62.3,57.1,30.02,East,92,0.0,9.0,83,0.00,,,0.00,Wunderground v.1.15,2013-09-24 13:20:00,
2013-09-24 09:26:00,62.5,57.3,30.02,East,82,1.0,9.0,83,0.00,,,0.00,Wunderground v.1.15,2013-09-24 13:26:00,
2013-09-24 09:31:00,62.6,57.4,30.02,ESE,103,0.0,9.0,83,0.00,,,0.00,Wunderground v.1.15,2013-09-24 13:31:00,
2013-09-24 09:36:00,62.8,57.2,30.02,East,90,0.0,9.0,82,0.00,,,0.00,Wunderground v.1.15,2013-09-24 13:36:00,
2013-09-24 09:41:00,63.0,57.4,30.02,East,93,1.0,4.0,82,0.00,,,0.00,Wunderground v.1.15,2013-09-24 13:41:00,
2013-09-24 09:46:00,63.2,57.3,30.02,ENE,66,1.0,9.0,81,0.00,,,0.00,Wunderground v.1.15,2013-09-24 13:46:00,
2013-09-24 09:52:00,63.3,57.7,30.02,ESE,105,1.0,9.0,82,0.00,,,0.00,Wunderground v.1.15,2013-09-24 13:52:00,
2013-09-24 09:58:00,63.3,57.4,30.02,ENE,69,1.0,9.0,81,0.00,,,0.00,Wunderground v.1.15,2013-09-24 13:58:00,
2013-09-24 10:03:00,63.5,57.9,30.02,SE,127,1.0,9.0,82,0.00,,,0.00,Wunderground v.1.15,2013-09-24 14:03:00,
2013-09-24 10:08:00,63.6,58.0,30.01,East,96,1.0,9.0,82,0.00,,,0.00,Wunderground v.1.15,2013-09-24 14:08:00,
2013-09-24 10:14:00,63.8,57.9,30.01,East,88,1.0,9.0,81,0.00,,,0.00,Wunderground v.1.15,2013-09-24 14:14:00,
2013-09-24 10:19:00,63.9,58.0,30.01,ESE,103,1.0,9.0,81,0.00,,,0.00,Wunderground v.1.15,2013-09-24 14:19:00,
2013-09-24 10:24:00,63.9,58.0,30.01,SE,146,2.0,9.0,81,0.00,,,0.00,Wunderground v.1.15,2013-09-24 14:24:00,
2013-09-24 10:29:00,64.1,58.1,30.01,SSE,153,1.0,9.0,81,0.00,,,0.00,Wunderground v.1.15,2013-09-24 14:29:00,
2013-09-24 10:34:00,64.2,58.2,30.01,East,98,1.0,9.0,81,0.00,,,0.00,Wunderground v.1.15,2013-09-24 14:34:00,
2013-09-24 10:40:00,64.2,58.2,30.01,ENE,58,1.0,1.0,81,0.00,,,0.00,Wunderground v.1.15,2013-09-24 14:40:00,
2013-09-24 13:47:00,67.4,61.4,29.97,ENE,59,0.0,9.0,81,0.00,,,0.00,Wunderground v.1.15,2013-09-24 17:47:00,
2013-09-24 13:52:00,67.3,60.9,29.97,SE,131,0.0,9.0,80,0.00,,,0.00,Wunderground v.1.15,2013-09-24 17:52:00,
2013-09-24 13:57:00,67.2,60.8,29.97,ENE,65,0.0,0.0,80,0.00,,,0.00,Wunderground v.1.15,2013-09-24 17:57:00,
2013-09-24 14:05:00,67.1,61.1,29.96,ENE,62,0.0,0.0,81,0.00,,,0.00,Wunderground v.1.15,2013-09-24 18:05:00,
2013-09-24 14:10:00,67.4,61.7,29.96,NE,56,0.0,1.0,82,0.00,,,0.00,Wunderground v.1.15,2013-09-24 18:10:00,
2013-09-24 14:15:00,67.5,61.1,29.96,NNE,26,0.0,4.0,80,0.00,,,0.00,Wunderground v.1.15,2013-09-24 18:15:00,
2013-09-24 14:20:00,67.6,61.6,29.96,NE,35,1.0,1.0,81,0.00,,,0.00,Wunderground v.1.15,2013-09-24 18:20:00,
2013-09-24 14:25:00,67.8,61.4,29.95,ENE,72,0.0,5.0,80,0.00,,,0.00,Wunderground v.1.15,2013-09-24 18:25:00,
2013-09-24 14:30:00,68.3,61.9,29.95,East,83,2.0,2.0,80,0.00,,,0.00,Wunderground v.1.15,2013-09-24 18:30:00,
2013-09-24 14:35:00,68.7,61.6,29.95,NE,44,0.0,3.0,78,0.00,,,0.00,Wunderground v.1.15,2013-09-24 18:35:00,
2013-09-24 14:40:00,69.1,61.6,29.95,NE,42,0.0,2.0,77,0.00,,,0.00,Wunderground v.1.15,2013-09-24 18:40:00,
2013-09-24 14:45:00,69.5,62.0,29.94,SE,129,0.0,5.0,77,0.00,,,0.00,Wunderground v.1.15,2013-09-24 18:45:00,
2013-09-24 14:50:00,69.7,62.2,29.95,ENE,67,0.0,1.0,77,0.00,,,0.00,Wunderground v.1.15,2013-09-24 18:50:00,
2013-09-24 14:55:00,69.6,61.7,29.95,ENE,62,3.0,5.0,76,0.00,,,0.00,Wunderground v.1.15,2013-09-24 18:55:00,
2013-09-24 15:00:00,69.2,61.7,29.95,ESE,112,0.0,1.0,77,0.00,,,0.00,Wunderground v.1.15,2013-09-24 19:00:00,
2013-09-24 15:05:00,69.1,61.6,29.94,NE,48,4.0,5.0,77,0.00,,,0.00,Wunderground v.1.15,2013-09-24 19:05:00,
2013-09-24 15:10:00,69.1,61.9,29.94,NE,54,0.0,0.0,78,0.00,,,0.00,Wunderground v.1.15,2013-09-24 19:10:00,
2013-09-24 15:15:00,69.2,62.4,29.94,NE,55,0.0,2.0,79,0.00,,,0.00,Wunderground v.1.15,2013-09-24 19:15:00,
2013-09-24 15:20:00,69.1,61.9,29.94,East,81,0.0,0.0,78,0.00,,,0.00,Wunderground v.1.15,2013-09-24 19:20:00,
2013-09-24 15:25:00,69.1,62.3,29.94,East,101,0.0,7.0,79,0.00,,,0.00,Wunderground v.1.15,2013-09-24 19:25:00,
2013-09-24 15:30:00,68.9,61.4,29.93,SSE,149,1.0,2.0,77,0.00,,,0.00,Wunderground v.1.15,2013-09-24 19:30:00,
2013-09-24 15:35:00,68.8,62.0,29.93,SE,126,5.0,7.0,79,0.00,,,0.00,Wunderground v.1.15,2013-09-24 19:35:00,
2013-09-24 15:40:00,68.8,62.0,29.93,ESE,111,0.0,4.0,79,0.00,,,0.00,Wunderground v.1.15,2013-09-24 19:40:00,
2013-09-24 15:45:00,68.8,62.0,29.93,SE,137,0.0,4.0,79,0.00,,,0.00,Wunderground v.1.15,2013-09-24 19:45:00,
2013-09-24 15:50:00,69.0,61.9,29.93,ESE,119,0.0,0.0,78,0.00,,,0.00,Wunderground v.1.15,2013-09-24 19:50:00,
2013-09-24 15:55:00,68.9,62.5,29.93,SSE,159,0.0,4.0,80,0.00,,,0.00,Wunderground v.1.15,2013-09-24 19:55:00,
2013-09-24 16:00:00,68.8,62.0,29.93,SE,126,4.0,4.0,79,0.00,,,0.00,Wunderground v.1.15,2013-09-24 20:00:00,
2013-09-24 16:05:00,68.7,61.6,29.93,NE,34,0.0,5.0,78,0.00,,,0.00,Wunderground v.1.15,2013-09-24 20:05:00,
2013-09-24 16:10:00,68.8,62.0,29.93,ESE,113,1.0,2.0,79,0.00,,,0.00,Wunderground v.1.15,2013-09-24 20:10:00,
2013-09-24 16:15:00,68.9,62.5,29.93,SSE,160,0.0,2.0,80,0.00,,,0.00,Wunderground v.1.15,2013-09-24 20:15:00,
2013-09-24 16:20:00,68.8,62.0,29.93,SSE,150,0.0,0.0,79,0.00,,,0.00,Wunderground v.1.15,2013-09-24 20:20:00,
2013-09-24 16:25:00,68.5,61.7,29.93,ESE,123,0.0,6.0,79,0.00,,,0.00,Wunderground v.1.15,2013-09-24 20:25:00,
2013-09-24 16:30:00,68.3,61.5,29.93,ESE,111,0.0,1.0,79,0.00,,,0.00,Wunderground v.1.15,2013-09-24 20:30:00,
2013-09-24 16:35:00,68.2,61.8,29.93,East,79,0.0,4.0,80,0.00,,,0.00,Wunderground v.1.15,2013-09-24 20:35:00,
2013-09-24 16:40:00,68.1,61.3,29.93,East,96,0.0,2.0,79,0.00,,,0.00,Wunderground v.1.15,2013-09-24 20:40:00,
2013-09-24 16:45:00,68.1,61.7,29.93,ENE,76,5.0,5.0,80,0.00,,,0.00,Wunderground v.1.15,2013-09-24 20:45:00,
2013-09-24 16:50:00,67.9,61.5,29.92,East,82,0.0,1.0,80,0.00,,,0.00,Wunderground v.1.15,2013-09-24 20:50:00,
2013-09-24 16:55:00,67.9,61.5,29.93,East,89,0.0,5.0,80,0.00,,,0.00,Wunderground v.1.15,2013-09-24 20:55:00,
2013-09-24 17:00:00,67.7,61.3,29.92,SE,132,0.0,1.0,80,0.00,,,0.00,Wunderground v.1.15,2013-09-24 21:00:00,
2013-09-24 17:05:00,67.4,61.4,29.92,ENE,65,3.0,8.0,81,0.00,,,0.00,Wunderground v.1.15,2013-09-24 21:05:00,
2013-09-24 17:10:00,67.0,61.0,29.92,NE,52,2.0,4.0,81,0.00,,,0.00,Wunderground v.1.15,2013-09-24 21:10:00,
2013-09-24 17:15:00,66.7,61.0,29.92,NE,55,0.0,5.0,82,0.00,,,0.00,Wunderground v.1.15,2013-09-24 21:15:00,
2013-09-24 17:20:00,66.5,60.8,29.92,ENE,67,0.0,2.0,82,0.00,,,0.00,Wunderground v.1.15,2013-09-24 21:20:00,
2013-09-24 17:25:00,66.5,61.2,29.92,ENE,74,1.0,3.0,83,0.00,,,0.00,Wunderground v.1.15,2013-09-24 21:25:00,
2013-09-24 17:30:00,66.6,60.9,29.92,ESE,103,1.0,1.0,82,0.00,,,0.00,Wunderground v.1.15,2013-09-24 21:30:00,
2013-09-24 17:35:00,66.6,61.3,29.92,ENE,65,0.0,4.0,83,0.00,,,0.00,Wunderground v.1.15,2013-09-24 21:35:00,
2013-09-24 17:40:00,66.5,61.2,29.92,East,83,0.0,1.0,83,0.00,,,0.00,Wunderground v.1.15,2013-09-24 21:40:00,
2013-09-24 17:45:00,66.3,61.0,29.92,East,82,0.0,5.0,83,0.00,,,0.00,Wunderground v.1.15,2013-09-24 21:45:00,
2013-09-24 17:50:00,66.2,60.9,29.92,ENE,76,0.0,1.0,83,0.00,,,0.00,Wunderground v.1.15,2013-09-24 21:50:00,
2013-09-24 17:55:00,66.0,61.0,29.92,NE,49,2.0,7.0,84,0.00,,,0.00,Wunderground v.1.15,2013-09-24 21:55:00,
2013-09-24 18:00:00,65.9,60.9,29.92,East,84,1.0,1.0,84,0.00,,,0.00,Wunderground v.1.15,2013-09-24 22:00:00,
2013-09-24 18:05:00,65.7,60.7,29.92,East,86,1.0,6.0,84,0.00,,,0.00,Wunderground v.1.15,2013-09-24 22:05:00,
2013-09-24 18:10:00,65.7,60.7,29.91,East,84,3.0,3.0,84,0.00,,,0.00,Wunderground v.1.15,2013-09-24 22:10:00,
2013-09-24 18:15:00,65.6,60.6,29.91,East,93,0.0,6.0,84,0.00,,,0.00,Wunderground v.1.15,2013-09-24 22:15:00,
2013-09-24 18:20:00,65.6,60.6,29.91,SE,126,4.0,5.0,84,0.00,,,0.00,Wunderground v.1.15,2013-09-24 22:20:00,
2013-09-24 18:25:00,65.5,60.5,29.91,ESE,119,0.0,5.0,84,0.00,,,0.00,Wunderground v.1.15,2013-09-24 22:25:00,
2013-09-24 18:30:00,65.5,60.5,29.91,SSE,153,10.0,12.0,84,0.00,,,0.00,Wunderground v.1.15,2013-09-24 22:30:00,
2013-09-24 18:35:00,65.4,60.4,29.91,SE,127,0.0,12.0,84,0.00,,,0.00,Wunderground v.1.15,2013-09-24 22:35:00,
2013-09-24 18:40:00,65.4,60.4,29.91,SSE,159,0.0,1.0,84,0.00,,,0.00,Wunderground v.1.15,2013-09-24 22:40:00,
2013-09-24 18:45:00,65.3,60.7,29.91,SW,232,0.0,3.0,85,0.00,,,0.00,Wunderground v.1.15,2013-09-24 22:45:00,
2013-09-24 18:50:00,65.1,60.1,29.92,East,82,1.0,1.0,84,0.00,,,0.00,Wunderground v.1.15,2013-09-24 22:50:00,
2013-09-24 18:55:00,65.0,60.0,29.92,ESE,115,0.0,7.0,84,0.00,,,0.00,Wunderground v.1.15,2013-09-24 22:55:00,
2013-09-24 19:00:00,64.9,59.9,29.91,ESE,118,2.0,2.0,84,0.00,,,0.00,Wunderground v.1.15,2013-09-24 23:00:00,
2013-09-24 19:05:00,64.8,60.2,29.91,ESE,103,0.0,5.0,85,0.00,,,0.00,Wunderground v.1.15,2013-09-24 23:05:00,
2013-09-24 19:10:00,64.8,60.2,29.91,SSE,159,0.0,1.0,85,0.00,,,0.00,Wunderground v.1.15,2013-09-24 23:10:00,
2013-09-24 19:15:00,64.7,60.1,29.91,ESE,112,0.0,8.0,85,0.00,,,0.00,Wunderground v.1.15,2013-09-24 23:15:00,
2013-09-24 19:20:00,64.6,60.0,29.91,SE,129,0.0,0.0,85,0.00,,,0.00,Wunderground v.1.15,2013-09-24 23:20:00,
2013-09-24 19:25:00,64.5,59.9,29.91,ESE,120,0.0,5.0,85,0.00,,,0.00,Wunderground v.1.15,2013-09-24 23:25:00,
2013-09-24 19:30:00,64.4,60.1,29.91,ENE,77,2.0,8.0,86,0.00,,,0.00,Wunderground v.1.15,2013-09-24 23:30:00,
2013-09-24 19:35:00,64.3,60.0,29.91,ENE,67,0.0,8.0,86,0.00,,,0.00,Wunderground v.1.15,2013-09-24 23:35:00,
2013-09-24 19:40:00,64.2,59.9,29.91,East,95,0.0,1.0,86,0.00,,,0.00,Wunderground v.1.15,2013-09-24 23:40:00,
2013-09-24 19:45:00,64.1,59.8,29.91,SE,128,0.0,7.0,86,0.00,,,0.00,Wunderground v.1.15,2013-09-24 23:45:00,
2013-09-24 19:50:00,64.1,59.8,29.91,ESE,109,0.0,0.0,86,0.00,,,0.00,Wunderground v.1.15,2013-09-24 23:50:00,
2013-09-24 19:55:00,64.1,59.8,29.90,ENE,69,0.0,2.0,86,0.00,,,0.00,Wunderground v.1.15,2013-09-24 23:55:00,
2013-09-24 20:00:00,64.1,59.8,29.91,ENE,71,0.0,0.0,86,0.00,,,0.00,Wunderground v.1.15,2013-09-25 00:00:00,
2013-09-24 20:05:00,64.1,60.2,29.91,ENE,71,0.0,0.0,87,0.00,,,0.00,Wunderground v.1.15,2013-09-25 00:05:00,
2013-09-24 20:10:00,64.0,60.1,29.91,ENE,71,0.0,0.0,87,0.00,,,0.00,Wunderground v.1.15,2013-09-25 00:10:00,
2013-09-24 20:15:00,64.0,60.1,29.91,ENE,71,0.0,1.0,87,0.00,,,0.00,Wunderground v.1.15,2013-09-25 00:15:00,
2013-09-24 20:20:00,63.9,60.0,29.91,ENE,71,0.0,0.0,87,0.00,,,0.00,Wunderground v.1.15,2013-09-25 00:20:00,
2013-09-24 20:25:00,63.9,60.0,29.91,ENE,68,0.0,2.0,87,0.00,,,0.00,Wunderground v.1.15,2013-09-25 00:25:00,
2013-09-24 20:30:00,63.8,59.9,29.91,ENE,70,0.0,1.0,87,0.00,,,0.00,Wunderground v.1.15,2013-09-25 00:30:00,
2013-09-24 20:35:00,63.8,60.2,29.91,NE,45,0.0,7.0,88,0.00,,,0.00,Wunderground v.1.15,2013-09-25 00:35:00,
2013-09-24 20:40:00,63.7,59.8,29.91,East,98,0.0,5.0,87,0.00,,,0.00,Wunderground v.1.15,2013-09-25 00:40:00,
2013-09-24 20:45:00,63.7,60.1,29.91,East,81,0.0,6.0,88,0.00,,,0.00,Wunderground v.1.15,2013-09-25 00:45:00,
2013-09-24 20:50:00,63.6,59.7,29.92,NE,55,0.0,1.0,87,0.00,,,0.00,Wunderground v.1.15,2013-09-25 00:50:00,
2013-09-24 20:55:00,63.6,59.7,29.92,NE,34,0.0,6.0,87,0.00,,,0.00,Wunderground v.1.15,2013-09-25 00:55:00,
2013-09-24 21:00:00,63.6,59.7,29.92,ENE,66,0.0,1.0,87,0.00,,,0.00,Wunderground v.1.15,2013-09-25 01:00:00,
2013-09-24 21:05:00,63.6,59.7,29.92,ENE,57,2.0,4.0,87,0.00,,,0.00,Wunderground v.1.15,2013-09-25 01:05:00,
2013-09-24 21:10:00,63.7,59.8,29.93,NE,42,0.0,6.0,87,0.00,,,0.00,Wunderground v.1.15,2013-09-25 01:10:00,
2013-09-24 21:15:00,63.7,59.8,29.93,NE,41,0.0,6.0,87,0.00,,,0.00,Wunderground v.1.15,2013-09-25 01:15:00,
2013-09-24 21:20:00,63.7,59.8,29.93,NE,55,0.0,1.0,87,0.00,,,0.00,Wunderground v.1.15,2013-09-25 01:20:00,
2013-09-24 21:25:00,63.7,59.8,29.92,NE,55,5.0,7.0,87,0.00,,,0.00,Wunderground v.1.15,2013-09-25 01:25:00,
2013-09-24 21:30:00,63.7,59.8,29.92,East,94,6.0,6.0,87,0.00,,,0.00,Wunderground v.1.15,2013-09-25 01:30:00,
2013-09-24 21:35:00,63.6,59.7,29.91,ENE,69,0.0,8.0,87,0.00,,,0.00,Wunderground v.1.15,2013-09-25 01:35:00,
2013-09-24 21:40:00,63.5,59.6,29.92,ENE,65,0.0,3.0,87,0.00,,,0.00,Wunderground v.1.15,2013-09-25 01:40:00,
2013-09-24 21:45:00,63.5,59.6,29.92,ENE,74,0.0,10.0,87,0.00,,,0.00,Wunderground v.1.15,2013-09-25 01:45:00,
2013-09-24 21:50:00,63.4,59.5,29.93,NE,48,0.0,1.0,87,0.00,,,0.00,Wunderground v.1.15,2013-09-25 01:50:00,
2013-09-24 21:55:00,63.5,59.6,29.93,NE,53,0.0,3.0,87,0.00,,,0.00,Wunderground v.1.15,2013-09-25 01:55:00,
2013-09-24 22:00:00,63.5,59.6,29.93,SE,142,0.0,2.0,87,0.00,,,0.00,Wunderground v.1.15,2013-09-25 02:00:00,
2013-09-24 22:05:00,63.5,59.6,29.92,South,188,0.0,2.0,87,0.00,,,0.00,Wunderground v.1.15,2013-09-25 02:05:00,
2013-09-24 22:10:00,63.6,59.7,29.92,ENE,68,0.0,1.0,87,0.00,,,0.00,Wunderground v.1.15,2013-09-25 02:10:00,
2013-09-24 22:15:00,63.5,59.6,29.92,ENE,66,0.0,11.0,87,0.00,,,0.00,Wunderground v.1.15,2013-09-25 02:15:00,
2013-09-24 22:20:00,63.5,59.6,29.92,East,83,0.0,1.0,87,0.00,,,0.00,Wunderground v.1.15,2013-09-25 02:20:00,
2013-09-24 22:25:00,63.5,59.6,29.92,ENE,76,0.0,6.0,87,0.00,,,0.00,Wunderground v.1.15,2013-09-25 02:25:00,
2013-09-24 22:30:00,63.5,59.6,29.92,ENE,64,0.0,1.0,87,0.00,,,0.00,Wunderground v.1.15,2013-09-25 02:30:00,
2013-09-24 22:35:00,63.5,60.2,29.92,ENE,69,2.0,2.0,89,0.00,,,0.00,Wunderground v.1.15,2013-09-25 02:35:00,
2013-09-24 22:40:00,63.5,59.6,29.91,ENE,69,0.0,1.0,87,0.00,,,0.00,Wunderground v.1.15,2013-09-25 02:40:00,
2013-09-24 22:45:00,63.5,59.6,29.92,ENE,68,0.0,4.0,87,0.00,,,0.00,Wunderground v.1.15,2013-09-25 02:45:00,
2013-09-24 22:50:00,63.5,59.9,29.92,ENE,68,0.0,3.0,88,0.00,,,0.00,Wunderground v.1.15,2013-09-25 02:50:00,
2013-09-24 22:55:00,63.5,59.9,29.92,ENE,67,0.0,3.0,88,0.00,,,0.00,Wunderground v.1.15,2013-09-25 02:55:00,
2013-09-24 23:00:00,63.4,59.8,29.92,ENE,68,0.0,1.0,88,0.00,,,0.00,Wunderground v.1.15,2013-09-25 03:00:00,
2013-09-24 23:05:00,63.4,59.8,29.92,ENE,69,0.0,3.0,88,0.00,,,0.00,Wunderground v.1.15,2013-09-25 03:05:00,
2013-09-24 23:10:00,63.5,59.9,29.91,ENE,69,1.0,1.0,88,0.00,,,0.00,Wunderground v.1.15,2013-09-25 03:10:00,
2013-09-24 23:15:00,63.4,59.8,29.91,SE,131,1.0,5.0,88,0.00,,,0.00,Wunderground v.1.15,2013-09-25 03:15:00,
2013-09-24 23:20:00,63.4,59.8,29.92,ENE,66,1.0,1.0,88,0.00,,,0.00,Wunderground v.1.15,2013-09-25 03:20:00,
2013-09-24 23:25:00,63.4,59.8,29.91,East,91,0.0,5.0,88,0.00,,,0.00,Wunderground v.1.15,2013-09-25 03:25:00,
2013-09-24 23:30:00,63.4,59.8,29.91,East,94,0.0,1.0,88,0.00,,,0.00,Wunderground v.1.15,2013-09-25 03:30:00,
2013-09-24 23:35:00,63.4,59.8,29.91,SE,128,0.0,5.0,88,0.00,,,0.00,Wunderground v.1.15,2013-09-25 03:35:00,
2013-09-24 23:40:00,63.4,59.8,29.90,ENE,71,0.0,4.0,88,0.00,,,0.00,Wunderground v.1.15,2013-09-25 03:40:00,
2013-09-24 23:45:00,63.3,59.7,29.90,East,96,0.0,4.0,88,0.00,,,0.00,Wunderground v.1.15,2013-09-25 03:45:00,
2013-09-24 23:50:00,63.3,59.7,29.90,East,90,0.0,0.0,88,0.00,,,0.00,Wunderground v.1.15,2013-09-25 03:50:00,
2013-09-24 23:55:00,63.3,59.7,29.90,East,86,0.0,3.0,88,0.00,,,0.00,Wunderground v.1.15,2013-09-25 03:55:00,